sensor_id;sensor_type;location;lat;lon;timestamp;temperature;humidity
34877;DHT22;21086;44.780;17.194;2023-02-28T00:01:13;4.70;99.90
34877;DHT22;21086;44.780;17.194;2023-02-28T00:03:40;4.70;99.90
34877;DHT22;21086;44.780;17.194;2023-02-28T00:06:08;4.60;99.90
34877;DHT22;21086;44.780;17.194;2023-02-28T00:08:39;4.60;99.90
34877;DHT22;21086;44.780;17.194;2023-02-28T00:11:09;4.60;99.90
34877;DHT22;21086;44.780;17.194;2023-02-28T00:13:42;4.60;99.90
34877;DHT22;21086;44.780;17.194;2023-02-28T00:16:11;4.70;99.90
34877;DHT22;21086;44.780;17.194;2023-02-28T00:18:41;4.70;99.90
34877;DHT22;21086;44.780;17.194;2023-02-28T00:21:08;4.70;99.90
34877;DHT22;21086;44.780;17.194;2023-02-28T00:23:35;4.80;99.90
34877;DHT22;21086;44.780;17.194;2023-02-28T00:26:03;4.80;99.90
34877;DHT22;21086;44.780;17.194;2023-02-28T00:28:30;4.80;99.90
34877;DHT22;21086;44.780;17.194;2023-02-28T00:30:57;4.80;99.90
34877;DHT22;21086;44.780;17.194;2023-02-28T00:33:24;4.80;99.90
34877;DHT22;21086;44.780;17.194;2023-02-28T00:35:51;4.90;99.90
34877;DHT22;21086;44.780;17.194;2023-02-28T00:38:18;4.80;99.90
34877;DHT22;21086;44.780;17.194;2023-02-28T00:40:45;4.60;99.90
34877;DHT22;21086;44.780;17.194;2023-02-28T00:43:13;4.70;99.90
34877;DHT22;21086;44.780;17.194;2023-02-28T00:45:40;4.80;99.90
34877;DHT22;21086;44.780;17.194;2023-02-28T00:48:06;4.70;99.90
34877;DHT22;21086;44.780;17.194;2023-02-28T00:50:34;4.60;99.90
34877;DHT22;21086;44.780;17.194;2023-02-28T00:53:01;4.60;99.90
34877;DHT22;21086;44.780;17.194;2023-02-28T00:55:28;4.50;99.90
34877;DHT22;21086;44.780;17.194;2023-02-28T00:57:54;4.50;99.90
34877;DHT22;21086;44.780;17.194;2023-02-28T01:00:21;4.30;99.90
34877;DHT22;21086;44.780;17.194;2023-02-28T01:02:48;4.40;99.90
34877;DHT22;21086;44.780;17.194;2023-02-28T01:05:15;4.30;99.90
34877;DHT22;21086;44.780;17.194;2023-02-28T01:07:42;4.40;99.90
34877;DHT22;21086;44.780;17.194;2023-02-28T01:10:10;4.40;99.90
34877;DHT22;21086;44.780;17.194;2023-02-28T01:12:36;4.40;99.90
34877;DHT22;21086;44.780;17.194;2023-02-28T01:15:04;4.40;99.90
34877;DHT22;21086;44.780;17.194;2023-02-28T01:17:31;4.40;99.90
34877;DHT22;21086;44.780;17.194;2023-02-28T01:19:58;4.40;99.90
34877;DHT22;21086;44.780;17.194;2023-02-28T01:22:25;4.40;99.90
34877;DHT22;21086;44.780;17.194;2023-02-28T01:24:52;4.50;99.90
34877;DHT22;21086;44.780;17.194;2023-02-28T01:27:19;4.50;99.90
34877;DHT22;21086;44.780;17.194;2023-02-28T01:29:46;4.50;99.90
34877;DHT22;21086;44.780;17.194;2023-02-28T01:32:13;4.50;99.90
34877;DHT22;21086;44.780;17.194;2023-02-28T01:34:40;4.50;99.90
34877;DHT22;21086;44.780;17.194;2023-02-28T01:37:07;4.60;99.90
34877;DHT22;21086;44.780;17.194;2023-02-28T01:39:34;4.60;99.90
34877;DHT22;21086;44.780;17.194;2023-02-28T01:42:02;4.50;99.90
34877;DHT22;21086;44.780;17.194;2023-02-28T01:44:58;4.60;99.90
34877;DHT22;21086;44.780;17.194;2023-02-28T01:47:36;4.60;99.90
34877;DHT22;21086;44.780;17.194;2023-02-28T01:50:09;4.50;99.90
34877;DHT22;21086;44.780;17.194;2023-02-28T01:52:38;4.50;99.90
34877;DHT22;21086;44.780;17.194;2023-02-28T01:55:06;4.50;99.90
34877;DHT22;21086;44.780;17.194;2023-02-28T01:57:36;4.50;99.90
34877;DHT22;21086;44.780;17.194;2023-02-28T02:00:13;4.50;99.90
34877;DHT22;21086;44.780;17.194;2023-02-28T02:02:47;4.50;99.90
34877;DHT22;21086;44.780;17.194;2023-02-28T02:05:19;4.50;99.90
34877;DHT22;21086;44.780;17.194;2023-02-28T02:07:48;4.40;99.90
34877;DHT22;21086;44.780;17.194;2023-02-28T02:21:35;4.20;99.90
34877;DHT22;21086;44.780;17.194;2023-02-28T02:38:24;4.20;99.90
34877;DHT22;21086;44.780;17.194;2023-02-28T02:43:50;4.10;99.90
34877;DHT22;21086;44.780;17.194;2023-02-28T02:46:21;3.90;99.90
34877;DHT22;21086;44.780;17.194;2023-02-28T02:48:50;3.90;99.90
34877;DHT22;21086;44.780;17.194;2023-02-28T02:51:21;4.00;99.90
34877;DHT22;21086;44.780;17.194;2023-02-28T02:53:57;4.00;99.90
34877;DHT22;21086;44.780;17.194;2023-02-28T02:56:28;4.00;99.90
34877;DHT22;21086;44.780;17.194;2023-02-28T02:59:09;4.00;99.90
34877;DHT22;21086;44.780;17.194;2023-02-28T03:01:37;3.90;99.90
34877;DHT22;21086;44.780;17.194;2023-02-28T03:04:10;4.00;99.90
34877;DHT22;21086;44.780;17.194;2023-02-28T03:06:38;4.00;99.90
34877;DHT22;21086;44.780;17.194;2023-02-28T03:09:05;3.80;99.90
34877;DHT22;21086;44.780;17.194;2023-02-28T03:11:35;3.90;99.90
34877;DHT22;21086;44.780;17.194;2023-02-28T03:19:44;4.00;99.90
34877;DHT22;21086;44.780;17.194;2023-02-28T03:25:23;4.00;99.90
34877;DHT22;21086;44.780;17.194;2023-02-28T03:30:44;4.10;99.90
34877;DHT22;21086;44.780;17.194;2023-02-28T03:33:21;4.00;99.90
34877;DHT22;21086;44.780;17.194;2023-02-28T03:35:59;4.00;99.90
34877;DHT22;21086;44.780;17.194;2023-02-28T03:38:38;4.10;99.90
34877;DHT22;21086;44.780;17.194;2023-02-28T03:41:35;4.30;99.90
34877;DHT22;21086;44.780;17.194;2023-02-28T03:44:16;4.20;99.90
34877;DHT22;21086;44.780;17.194;2023-02-28T03:46:48;4.10;99.90
34877;DHT22;21086;44.780;17.194;2023-02-28T03:49:24;4.20;99.90
34877;DHT22;21086;44.780;17.194;2023-02-28T03:51:55;4.20;99.90
34877;DHT22;21086;44.780;17.194;2023-02-28T03:54:37;4.20;99.90
34877;DHT22;21086;44.780;17.194;2023-02-28T03:57:15;4.30;99.90
34877;DHT22;21086;44.780;17.194;2023-02-28T03:59:48;4.20;99.90
34877;DHT22;21086;44.780;17.194;2023-02-28T04:02:16;4.30;99.90
34877;DHT22;21086;44.780;17.194;2023-02-28T04:04:43;4.00;99.90
34877;DHT22;21086;44.780;17.194;2023-02-28T04:07:16;4.00;99.90
34877;DHT22;21086;44.780;17.194;2023-02-28T04:09:43;4.10;99.90
34877;DHT22;21086;44.780;17.194;2023-02-28T04:12:11;4.10;99.90
34877;DHT22;21086;44.780;17.194;2023-02-28T04:14:41;4.20;99.90
34877;DHT22;21086;44.780;17.194;2023-02-28T04:17:08;4.20;99.90
34877;DHT22;21086;44.780;17.194;2023-02-28T04:19:35;4.10;99.90
34877;DHT22;21086;44.780;17.194;2023-02-28T04:22:02;4.00;99.90
34877;DHT22;21086;44.780;17.194;2023-02-28T04:24:29;4.10;99.90
34877;DHT22;21086;44.780;17.194;2023-02-28T04:26:57;4.10;99.90
34877;DHT22;21086;44.780;17.194;2023-02-28T04:29:32;4.00;99.90
34877;DHT22;21086;44.780;17.194;2023-02-28T04:31:59;4.10;99.90
34877;DHT22;21086;44.780;17.194;2023-02-28T04:34:29;4.10;99.90
34877;DHT22;21086;44.780;17.194;2023-02-28T04:36:57;4.00;99.90
34877;DHT22;21086;44.780;17.194;2023-02-28T04:39:40;4.00;99.90
34877;DHT22;21086;44.780;17.194;2023-02-28T04:42:08;4.00;99.90
34877;DHT22;21086;44.780;17.194;2023-02-28T04:44:35;4.00;99.90
34877;DHT22;21086;44.780;17.194;2023-02-28T04:47:02;4.00;99.90
34877;DHT22;21086;44.780;17.194;2023-02-28T04:49:29;3.90;99.90
34877;DHT22;21086;44.780;17.194;2023-02-28T04:51:56;4.00;99.90
34877;DHT22;21086;44.780;17.194;2023-02-28T04:54:23;3.80;99.90
34877;DHT22;21086;44.780;17.194;2023-02-28T04:56:50;3.90;99.90
34877;DHT22;21086;44.780;17.194;2023-02-28T04:59:17;3.90;99.90
34877;DHT22;21086;44.780;17.194;2023-02-28T05:01:48;3.80;99.90
34877;DHT22;21086;44.780;17.194;2023-02-28T05:04:15;3.90;99.90
34877;DHT22;21086;44.780;17.194;2023-02-28T05:06:43;3.90;99.90
34877;DHT22;21086;44.780;17.194;2023-02-28T05:09:10;4.00;99.90
34877;DHT22;21086;44.780;17.194;2023-02-28T05:11:41;4.00;99.90
34877;DHT22;21086;44.780;17.194;2023-02-28T05:14:13;4.00;99.90
34877;DHT22;21086;44.780;17.194;2023-02-28T05:16:41;4.00;99.90
34877;DHT22;21086;44.780;17.194;2023-02-28T05:19:08;3.90;99.90
34877;DHT22;21086;44.780;17.194;2023-02-28T05:21:40;4.00;99.90
34877;DHT22;21086;44.780;17.194;2023-02-28T05:24:11;4.20;99.90
34877;DHT22;21086;44.780;17.194;2023-02-28T05:26:41;4.20;99.90
34877;DHT22;21086;44.780;17.194;2023-02-28T05:29:09;4.20;99.90
34877;DHT22;21086;44.780;17.194;2023-02-28T05:31:37;4.30;99.90
34877;DHT22;21086;44.780;17.194;2023-02-28T05:34:04;4.30;99.90
34877;DHT22;21086;44.780;17.194;2023-02-28T05:36:32;4.40;99.90
34877;DHT22;21086;44.780;17.194;2023-02-28T05:38:59;4.30;99.90
34877;DHT22;21086;44.780;17.194;2023-02-28T05:41:26;4.30;99.90
34877;DHT22;21086;44.780;17.194;2023-02-28T05:43:54;4.30;99.90
34877;DHT22;21086;44.780;17.194;2023-02-28T05:46:21;4.30;99.90
34877;DHT22;21086;44.780;17.194;2023-02-28T05:48:48;4.30;99.90
34877;DHT22;21086;44.780;17.194;2023-02-28T05:51:16;4.30;99.90
34877;DHT22;21086;44.780;17.194;2023-02-28T05:53:43;4.30;99.90
34877;DHT22;21086;44.780;17.194;2023-02-28T05:56:10;4.20;99.90
34877;DHT22;21086;44.780;17.194;2023-02-28T05:58:37;4.30;99.90
34877;DHT22;21086;44.780;17.194;2023-02-28T06:01:34;4.40;99.90
34877;DHT22;21086;44.780;17.194;2023-02-28T06:04:04;4.30;99.90
34877;DHT22;21086;44.780;17.194;2023-02-28T06:06:31;4.30;99.90
34877;DHT22;21086;44.780;17.194;2023-02-28T06:09:04;4.30;99.90
34877;DHT22;21086;44.780;17.194;2023-02-28T06:11:32;4.30;99.90
34877;DHT22;21086;44.780;17.194;2023-02-28T06:14:00;4.50;99.90
34877;DHT22;21086;44.780;17.194;2023-02-28T06:16:28;4.40;99.90
34877;DHT22;21086;44.780;17.194;2023-02-28T06:18:58;4.30;99.90
34877;DHT22;21086;44.780;17.194;2023-02-28T06:21:26;4.30;99.90
34877;DHT22;21086;44.780;17.194;2023-02-28T06:23:56;4.40;99.90
34877;DHT22;21086;44.780;17.194;2023-02-28T06:26:23;4.50;99.90
34877;DHT22;21086;44.780;17.194;2023-02-28T06:28:50;4.40;99.90
34877;DHT22;21086;44.780;17.194;2023-02-28T06:31:18;4.50;99.90
34877;DHT22;21086;44.780;17.194;2023-02-28T06:33:46;4.50;99.90
34877;DHT22;21086;44.780;17.194;2023-02-28T06:36:15;4.50;99.90
34877;DHT22;21086;44.780;17.194;2023-02-28T06:38:42;4.60;99.90
34877;DHT22;21086;44.780;17.194;2023-02-28T06:41:10;4.60;99.90
34877;DHT22;21086;44.780;17.194;2023-02-28T06:43:41;4.60;99.90
34877;DHT22;21086;44.780;17.194;2023-02-28T06:46:11;4.60;99.90
34877;DHT22;21086;44.780;17.194;2023-02-28T06:48:38;4.80;99.90
34877;DHT22;21086;44.780;17.194;2023-02-28T06:51:10;4.90;99.90
34877;DHT22;21086;44.780;17.194;2023-02-28T06:53:37;4.90;99.90
34877;DHT22;21086;44.780;17.194;2023-02-28T06:56:07;5.00;99.90
34877;DHT22;21086;44.780;17.194;2023-02-28T06:58:34;5.00;99.90
34877;DHT22;21086;44.780;17.194;2023-02-28T07:01:02;5.00;99.90
34877;DHT22;21086;44.780;17.194;2023-02-28T07:03:30;5.00;99.90
34877;DHT22;21086;44.780;17.194;2023-02-28T07:06:00;5.00;99.90
34877;DHT22;21086;44.780;17.194;2023-02-28T07:08:27;5.00;99.90
34877;DHT22;21086;44.780;17.194;2023-02-28T07:10:55;5.20;99.90
34877;DHT22;21086;44.780;17.194;2023-02-28T07:13:23;5.10;99.90
34877;DHT22;21086;44.780;17.194;2023-02-28T07:16:02;5.10;99.90
34877;DHT22;21086;44.780;17.194;2023-02-28T07:18:29;5.20;99.90
34877;DHT22;21086;44.780;17.194;2023-02-28T07:20:56;5.30;99.90
34877;DHT22;21086;44.780;17.194;2023-02-28T07:23:23;5.40;99.90
34877;DHT22;21086;44.780;17.194;2023-02-28T07:25:51;5.40;99.90
34877;DHT22;21086;44.780;17.194;2023-02-28T07:28:18;5.40;99.90
34877;DHT22;21086;44.780;17.194;2023-02-28T07:30:45;5.40;99.90
34877;DHT22;21086;44.780;17.194;2023-02-28T07:33:12;5.40;99.90
34877;DHT22;21086;44.780;17.194;2023-02-28T07:35:39;5.30;99.90
34877;DHT22;21086;44.780;17.194;2023-02-28T07:38:06;5.40;99.90
34877;DHT22;21086;44.780;17.194;2023-02-28T07:40:37;5.30;99.90
34877;DHT22;21086;44.780;17.194;2023-02-28T07:43:04;5.30;99.90
34877;DHT22;21086;44.780;17.194;2023-02-28T07:45:31;5.10;99.90
34877;DHT22;21086;44.780;17.194;2023-02-28T07:48:01;5.00;99.90
34877;DHT22;21086;44.780;17.194;2023-02-28T07:50:30;5.10;99.90
34877;DHT22;21086;44.780;17.194;2023-02-28T07:52:59;5.20;99.90
34877;DHT22;21086;44.780;17.194;2023-02-28T07:55:26;5.20;99.90
34877;DHT22;21086;44.780;17.194;2023-02-28T07:57:53;5.40;99.90
34877;DHT22;21086;44.780;17.194;2023-02-28T08:00:20;5.40;99.90
34877;DHT22;21086;44.780;17.194;2023-02-28T08:02:48;5.30;99.90
34877;DHT22;21086;44.780;17.194;2023-02-28T08:05:15;5.40;99.90
34877;DHT22;21086;44.780;17.194;2023-02-28T08:07:44;5.40;99.90
34877;DHT22;21086;44.780;17.194;2023-02-28T08:10:11;5.50;99.90
34877;DHT22;21086;44.780;17.194;2023-02-28T08:12:38;5.50;99.90
34877;DHT22;21086;44.780;17.194;2023-02-28T08:15:05;5.60;99.90
34877;DHT22;21086;44.780;17.194;2023-02-28T08:17:32;5.50;99.90
34877;DHT22;21086;44.780;17.194;2023-02-28T08:20:01;5.60;99.90
34877;DHT22;21086;44.780;17.194;2023-02-28T08:22:28;5.60;99.90
34877;DHT22;21086;44.780;17.194;2023-02-28T08:24:55;5.80;99.90
34877;DHT22;21086;44.780;17.194;2023-02-28T08:27:22;5.70;99.90
34877;DHT22;21086;44.780;17.194;2023-02-28T08:29:48;5.70;99.90
34877;DHT22;21086;44.780;17.194;2023-02-28T08:32:15;5.70;99.90
34877;DHT22;21086;44.780;17.194;2023-02-28T08:34:55;5.80;99.90
34877;DHT22;21086;44.780;17.194;2023-02-28T08:37:22;5.90;99.90
34877;DHT22;21086;44.780;17.194;2023-02-28T08:39:50;6.00;99.90
34877;DHT22;21086;44.780;17.194;2023-02-28T08:42:23;5.90;99.90
34877;DHT22;21086;44.780;17.194;2023-02-28T08:44:50;6.20;99.90
34877;DHT22;21086;44.780;17.194;2023-02-28T08:47:17;6.30;99.90
34877;DHT22;21086;44.780;17.194;2023-02-28T08:49:50;6.30;99.90
34877;DHT22;21086;44.780;17.194;2023-02-28T08:52:17;6.40;99.90
34877;DHT22;21086;44.780;17.194;2023-02-28T08:54:44;6.20;99.90
34877;DHT22;21086;44.780;17.194;2023-02-28T08:57:11;6.00;99.90
34877;DHT22;21086;44.780;17.194;2023-02-28T08:59:38;6.10;99.90
34877;DHT22;21086;44.780;17.194;2023-02-28T09:02:11;6.10;99.90
34877;DHT22;21086;44.780;17.194;2023-02-28T09:04:39;6.20;99.90
34877;DHT22;21086;44.780;17.194;2023-02-28T09:07:06;6.20;99.90
34877;DHT22;21086;44.780;17.194;2023-02-28T09:09:33;6.10;99.90
34877;DHT22;21086;44.780;17.194;2023-02-28T09:12:03;6.10;99.90
34877;DHT22;21086;44.780;17.194;2023-02-28T09:14:31;6.20;99.90
34877;DHT22;21086;44.780;17.194;2023-02-28T09:16:58;6.20;99.90
34877;DHT22;21086;44.780;17.194;2023-02-28T09:19:25;6.10;99.90
34877;DHT22;21086;44.780;17.194;2023-02-28T09:21:52;6.20;99.90
34877;DHT22;21086;44.780;17.194;2023-02-28T09:24:19;6.30;99.90
34877;DHT22;21086;44.780;17.194;2023-02-28T09:26:47;6.30;99.90
34877;DHT22;21086;44.780;17.194;2023-02-28T09:29:33;6.30;99.90
34877;DHT22;21086;44.780;17.194;2023-02-28T09:32:00;6.50;99.90
34877;DHT22;21086;44.780;17.194;2023-02-28T09:34:29;6.50;99.90
34877;DHT22;21086;44.780;17.194;2023-02-28T09:36:59;6.50;99.90
34877;DHT22;21086;44.780;17.194;2023-02-28T09:39:26;6.60;99.90
34877;DHT22;21086;44.780;17.194;2023-02-28T09:41:54;6.50;99.90
34877;DHT22;21086;44.780;17.194;2023-02-28T09:44:24;6.60;99.90
34877;DHT22;21086;44.780;17.194;2023-02-28T09:47:00;6.50;99.90
34877;DHT22;21086;44.780;17.194;2023-02-28T09:49:40;6.50;99.90
34877;DHT22;21086;44.780;17.194;2023-02-28T09:52:14;6.30;99.90
34877;DHT22;21086;44.780;17.194;2023-02-28T09:54:42;6.00;99.90
34877;DHT22;21086;44.780;17.194;2023-02-28T10:05:22;6.10;99.90
34877;DHT22;21086;44.780;17.194;2023-02-28T10:08:13;6.10;99.90
34877;DHT22;21086;44.780;17.194;2023-02-28T10:10:49;6.40;99.90
34877;DHT22;21086;44.780;17.194;2023-02-28T10:13:25;6.20;99.90
34877;DHT22;21086;44.780;17.194;2023-02-28T10:16:01;6.30;99.90
34877;DHT22;21086;44.780;17.194;2023-02-28T10:18:53;6.30;99.90
34877;DHT22;21086;44.780;17.194;2023-02-28T10:21:31;6.20;99.90
34877;DHT22;21086;44.780;17.194;2023-02-28T10:24:21;6.30;99.90
34877;DHT22;21086;44.780;17.194;2023-02-28T10:26:52;6.20;99.90
34877;DHT22;21086;44.780;17.194;2023-02-28T10:29:23;6.10;99.90
34877;DHT22;21086;44.780;17.194;2023-02-28T10:31:50;5.80;99.90
34877;DHT22;21086;44.780;17.194;2023-02-28T10:34:18;5.90;99.90
34877;DHT22;21086;44.780;17.194;2023-02-28T10:36:45;5.90;99.90
34877;DHT22;21086;44.780;17.194;2023-02-28T10:39:35;5.90;99.90
34877;DHT22;21086;44.780;17.194;2023-02-28T10:42:04;5.80;99.90
34877;DHT22;21086;44.780;17.194;2023-02-28T10:44:31;5.90;99.90
34877;DHT22;21086;44.780;17.194;2023-02-28T10:46:58;5.90;99.90
34877;DHT22;21086;44.780;17.194;2023-02-28T10:49:28;5.80;99.90
34877;DHT22;21086;44.780;17.194;2023-02-28T10:51:58;5.70;99.90
34877;DHT22;21086;44.780;17.194;2023-02-28T10:54:34;5.80;99.90
34877;DHT22;21086;44.780;17.194;2023-02-28T10:57:07;5.70;99.90
34877;DHT22;21086;44.780;17.194;2023-02-28T10:59:35;5.60;99.90
34877;DHT22;21086;44.780;17.194;2023-02-28T11:02:30;5.60;99.90
34877;DHT22;21086;44.780;17.194;2023-02-28T11:04:58;5.70;99.90
34877;DHT22;21086;44.780;17.194;2023-02-28T11:07:26;5.80;99.90
34877;DHT22;21086;44.780;17.194;2023-02-28T11:10:07;5.70;99.90
34877;DHT22;21086;44.780;17.194;2023-02-28T11:12:38;5.70;99.90
34877;DHT22;21086;44.780;17.194;2023-02-28T11:15:46;5.70;99.90
34877;DHT22;21086;44.780;17.194;2023-02-28T11:20:40;5.60;99.90
34877;DHT22;21086;44.780;17.194;2023-02-28T11:23:12;5.60;99.90
34877;DHT22;21086;44.780;17.194;2023-02-28T11:25:40;5.70;99.90
34877;DHT22;21086;44.780;17.194;2023-02-28T11:28:32;5.70;99.90
34877;DHT22;21086;44.780;17.194;2023-02-28T11:33:54;5.80;99.90
34877;DHT22;21086;44.780;17.194;2023-02-28T11:36:25;6.00;99.90
34877;DHT22;21086;44.780;17.194;2023-02-28T11:38:54;6.10;99.90
34877;DHT22;21086;44.780;17.194;2023-02-28T11:41:37;6.20;99.90
34877;DHT22;21086;44.780;17.194;2023-02-28T11:44:37;6.10;99.90
34877;DHT22;21086;44.780;17.194;2023-02-28T11:47:19;6.00;99.90
34877;DHT22;21086;44.780;17.194;2023-02-28T11:53:01;6.30;99.90
34877;DHT22;21086;44.780;17.194;2023-02-28T11:55:39;6.50;99.90
34877;DHT22;21086;44.780;17.194;2023-02-28T12:00:56;6.10;99.90
34877;DHT22;21086;44.780;17.194;2023-02-28T12:03:52;6.00;99.90
34877;DHT22;21086;44.780;17.194;2023-02-28T12:12:07;6.00;99.90
34877;DHT22;21086;44.780;17.194;2023-02-28T12:27:37;6.20;99.90
34877;DHT22;21086;44.780;17.194;2023-02-28T12:32:44;6.00;99.90
34877;DHT22;21086;44.780;17.194;2023-02-28T12:35:18;5.80;99.90
34877;DHT22;21086;44.780;17.194;2023-02-28T12:37:57;5.90;99.90
34877;DHT22;21086;44.780;17.194;2023-02-28T12:40:41;5.80;99.90
34877;DHT22;21086;44.780;17.194;2023-02-28T12:43:10;5.80;99.90
34877;DHT22;21086;44.780;17.194;2023-02-28T12:45:52;6.00;99.90
34877;DHT22;21086;44.780;17.194;2023-02-28T12:48:39;6.10;99.90
34877;DHT22;21086;44.780;17.194;2023-02-28T12:51:07;6.20;99.90
34877;DHT22;21086;44.780;17.194;2023-02-28T12:56:19;6.30;99.90
34877;DHT22;21086;44.780;17.194;2023-02-28T12:58:54;6.40;99.90
34877;DHT22;21086;44.780;17.194;2023-02-28T13:01:36;6.50;99.90
34877;DHT22;21086;44.780;17.194;2023-02-28T13:09:29;6.30;99.90
34877;DHT22;21086;44.780;17.194;2023-02-28T13:11:57;6.30;99.90
34877;DHT22;21086;44.780;17.194;2023-02-28T13:14:30;6.30;99.90
34877;DHT22;21086;44.780;17.194;2023-02-28T13:19:44;6.20;99.90
34877;DHT22;21086;44.780;17.194;2023-02-28T13:25:02;6.40;99.90
34877;DHT22;21086;44.780;17.194;2023-02-28T13:27:48;6.40;99.90
34877;DHT22;21086;44.780;17.194;2023-02-28T13:36:29;6.40;99.90
34877;DHT22;21086;44.780;17.194;2023-02-28T13:38:58;6.30;99.90
34877;DHT22;21086;44.780;17.194;2023-02-28T14:05:43;6.40;99.90
34877;DHT22;21086;44.780;17.194;2023-02-28T14:08:20;6.30;99.90
34877;DHT22;21086;44.780;17.194;2023-02-28T14:11:02;6.10;99.90
34877;DHT22;21086;44.780;17.194;2023-02-28T14:13:43;6.10;99.90
34877;DHT22;21086;44.780;17.194;2023-02-28T14:16:22;6.10;99.90
34877;DHT22;21086;44.780;17.194;2023-02-28T14:19:00;6.20;99.90
34877;DHT22;21086;44.780;17.194;2023-02-28T14:21:35;6.20;99.90
34877;DHT22;21086;44.780;17.194;2023-02-28T14:27:06;6.30;99.90
34877;DHT22;21086;44.780;17.194;2023-02-28T14:32:51;6.20;99.90
34877;DHT22;21086;44.780;17.194;2023-02-28T14:35:40;6.10;99.90
34877;DHT22;21086;44.780;17.194;2023-02-28T14:38:23;5.90;99.90
34877;DHT22;21086;44.780;17.194;2023-02-28T14:40:54;5.80;99.90
34877;DHT22;21086;44.780;17.194;2023-02-28T14:43:24;5.80;99.90
34877;DHT22;21086;44.780;17.194;2023-02-28T14:45:57;5.80;99.90
34877;DHT22;21086;44.780;17.194;2023-02-28T14:48:25;5.90;99.90
34877;DHT22;21086;44.780;17.194;2023-02-28T14:50:56;5.90;99.90
34877;DHT22;21086;44.780;17.194;2023-02-28T14:53:27;6.00;99.90
34877;DHT22;21086;44.780;17.194;2023-02-28T14:55:55;5.80;99.90
34877;DHT22;21086;44.780;17.194;2023-02-28T14:58:28;5.70;99.90
34877;DHT22;21086;44.780;17.194;2023-02-28T15:00:57;5.80;99.90
34877;DHT22;21086;44.780;17.194;2023-02-28T15:03:36;5.80;99.90
34877;DHT22;21086;44.780;17.194;2023-02-28T15:06:13;5.80;99.90
34877;DHT22;21086;44.780;17.194;2023-02-28T15:08:41;5.80;99.90
34877;DHT22;21086;44.780;17.194;2023-02-28T15:11:16;5.90;99.90
34877;DHT22;21086;44.780;17.194;2023-02-28T15:13:50;5.90;99.90
34877;DHT22;21086;44.780;17.194;2023-02-28T15:16:25;5.80;99.90
34877;DHT22;21086;44.780;17.194;2023-02-28T15:18:53;5.80;99.90
34877;DHT22;21086;44.780;17.194;2023-02-28T15:21:24;5.80;99.90
34877;DHT22;21086;44.780;17.194;2023-02-28T15:23:56;5.90;99.90
34877;DHT22;21086;44.780;17.194;2023-02-28T15:26:28;5.80;99.90
34877;DHT22;21086;44.780;17.194;2023-02-28T15:29:00;5.80;99.90
34877;DHT22;21086;44.780;17.194;2023-02-28T15:31:31;5.70;99.90
34877;DHT22;21086;44.780;17.194;2023-02-28T15:34:22;5.50;99.90
34877;DHT22;21086;44.780;17.194;2023-02-28T15:36:54;5.50;99.90
34877;DHT22;21086;44.780;17.194;2023-02-28T15:39:24;5.60;99.90
34877;DHT22;21086;44.780;17.194;2023-02-28T15:41:51;5.50;99.90
34877;DHT22;21086;44.780;17.194;2023-02-28T15:44:36;5.30;99.90
34877;DHT22;21086;44.780;17.194;2023-02-28T15:47:19;5.30;99.90
34877;DHT22;21086;44.780;17.194;2023-02-28T15:50:02;5.20;99.90
34877;DHT22;21086;44.780;17.194;2023-02-28T15:52:42;5.10;99.90
34877;DHT22;21086;44.780;17.194;2023-02-28T15:55:24;5.00;99.90
34877;DHT22;21086;44.780;17.194;2023-02-28T15:57:55;4.90;99.90
34877;DHT22;21086;44.780;17.194;2023-02-28T16:00:26;4.80;99.90
34877;DHT22;21086;44.780;17.194;2023-02-28T16:02:53;5.00;99.90
34877;DHT22;21086;44.780;17.194;2023-02-28T16:05:22;4.80;99.90
34877;DHT22;21086;44.780;17.194;2023-02-28T16:08:00;4.70;99.90
34877;DHT22;21086;44.780;17.194;2023-02-28T16:10:28;4.70;99.90
34877;DHT22;21086;44.780;17.194;2023-02-28T16:12:56;4.90;99.90
34877;DHT22;21086;44.780;17.194;2023-02-28T16:15:29;4.70;99.90
34877;DHT22;21086;44.780;17.194;2023-02-28T16:17:57;4.70;99.90
34877;DHT22;21086;44.780;17.194;2023-02-28T16:20:29;5.60;99.90
34877;DHT22;21086;44.780;17.194;2023-02-28T16:22:57;4.70;99.90
34877;DHT22;21086;44.780;17.194;2023-02-28T16:25:39;4.80;99.90
34877;DHT22;21086;44.780;17.194;2023-02-28T16:28:24;4.80;99.90
34877;DHT22;21086;44.780;17.194;2023-02-28T16:31:02;4.90;99.90
34877;DHT22;21086;44.780;17.194;2023-02-28T16:33:33;5.00;99.90
34877;DHT22;21086;44.780;17.194;2023-02-28T16:36:01;5.10;99.90
34877;DHT22;21086;44.780;17.194;2023-02-28T16:38:28;5.10;99.90
34877;DHT22;21086;44.780;17.194;2023-02-28T16:40:57;5.20;99.90
34877;DHT22;21086;44.780;17.194;2023-02-28T16:43:26;5.10;99.90
34877;DHT22;21086;44.780;17.194;2023-02-28T16:45:56;5.10;99.90
34877;DHT22;21086;44.780;17.194;2023-02-28T16:48:27;5.10;99.90
34877;DHT22;21086;44.780;17.194;2023-02-28T16:50:54;4.90;99.90
34877;DHT22;21086;44.780;17.194;2023-02-28T16:53:20;5.00;99.90
34877;DHT22;21086;44.780;17.194;2023-02-28T16:55:47;5.10;99.90
34877;DHT22;21086;44.780;17.194;2023-02-28T16:58:16;5.10;99.90
34877;DHT22;21086;44.780;17.194;2023-02-28T17:00:48;5.10;99.90
34877;DHT22;21086;44.780;17.194;2023-02-28T17:03:26;5.10;99.90
34877;DHT22;21086;44.780;17.194;2023-02-28T17:05:59;5.10;99.90
34877;DHT22;21086;44.780;17.194;2023-02-28T17:08:26;5.10;99.90
34877;DHT22;21086;44.780;17.194;2023-02-28T17:10:55;5.10;99.90
34877;DHT22;21086;44.780;17.194;2023-02-28T17:13:23;5.10;99.90
34877;DHT22;21086;44.780;17.194;2023-02-28T17:15:50;5.20;99.90
34877;DHT22;21086;44.780;17.194;2023-02-28T17:18:18;5.10;99.90
34877;DHT22;21086;44.780;17.194;2023-02-28T17:20:46;5.00;99.90
34877;DHT22;21086;44.780;17.194;2023-02-28T17:23:13;5.10;99.90
34877;DHT22;21086;44.780;17.194;2023-02-28T17:25:40;5.00;99.90
34877;DHT22;21086;44.780;17.194;2023-02-28T17:28:08;5.00;99.90
34877;DHT22;21086;44.780;17.194;2023-02-28T17:30:35;5.10;99.90
34877;DHT22;21086;44.780;17.194;2023-02-28T17:33:03;5.10;99.90
34877;DHT22;21086;44.780;17.194;2023-02-28T17:35:30;5.10;99.90
34877;DHT22;21086;44.780;17.194;2023-02-28T17:37:57;5.20;99.90
34877;DHT22;21086;44.780;17.194;2023-02-28T17:40:24;5.20;99.90
34877;DHT22;21086;44.780;17.194;2023-02-28T17:42:51;5.20;99.90
34877;DHT22;21086;44.780;17.194;2023-02-28T17:45:23;5.30;99.90
34877;DHT22;21086;44.780;17.194;2023-02-28T17:47:50;5.30;99.90
34877;DHT22;21086;44.780;17.194;2023-02-28T17:50:20;5.30;99.90
34877;DHT22;21086;44.780;17.194;2023-02-28T17:52:48;5.20;99.90
34877;DHT22;21086;44.780;17.194;2023-02-28T17:55:17;5.20;99.90
34877;DHT22;21086;44.780;17.194;2023-02-28T17:57:45;5.10;99.90
34877;DHT22;21086;44.780;17.194;2023-02-28T18:00:15;5.00;99.90
34877;DHT22;21086;44.780;17.194;2023-02-28T18:02:43;5.00;99.90
34877;DHT22;21086;44.780;17.194;2023-02-28T18:05:11;5.00;99.90